createdAt,value
2022-11-26T00:01:31.029Z,8.63
2022-11-26T00:04:33.982Z,8.52
2022-11-26T00:07:37.102Z,8.82
2022-11-26T00:10:40.113Z,9.30
2022-11-26T00:13:43.052Z,8.32
2022-11-26T00:16:47.448Z,9.52
2022-11-26T00:19:50.526Z,9.13
2022-11-26T00:22:55.311Z,8.75
2022-11-26T00:26:01.297Z,8.70
2022-11-26T00:29:04.386Z,9.32
2022-11-26T00:32:16.124Z,9.68
2022-11-26T00:35:19.770Z,8.60
2022-11-26T00:38:23.647Z,8.82
2022-11-26T00:41:31.948Z,9.57
2022-11-26T00:44:35.047Z,8.75
2022-11-26T00:47:39.619Z,8.75
2022-11-26T00:50:46.291Z,8.40
2022-11-26T00:53:50.273Z,8.40
2022-11-26T00:56:53.467Z,8.02
2022-11-26T00:59:56.399Z,8.05
2022-11-26T01:03:01.320Z,8.63
2022-11-26T01:06:04.338Z,8.57
2022-11-26T01:09:08.106Z,7.88
2022-11-26T01:12:15.011Z,8.52
2022-11-26T01:15:19.542Z,8.32
2022-11-26T01:18:25.094Z,8.40
2022-11-26T01:21:30.482Z,7.70
2022-11-26T01:24:33.486Z,8.35
2022-11-26T01:27:36.475Z,7.18
2022-11-26T01:30:40.554Z,7.90
2022-11-26T01:33:45.577Z,7.80
2022-11-26T01:36:48.604Z,7.50
2022-11-26T01:39:51.546Z,7.22
2022-11-26T01:43:00.146Z,7.82
2022-11-26T01:46:03.168Z,7.53
2022-11-26T01:49:20.015Z,7.18
2022-11-26T01:52:25.943Z,8.07
2022-11-26T01:55:37.105Z,6.97
2022-11-26T01:58:43.518Z,7.72
2022-11-26T02:01:46.829Z,6.60
2022-11-26T02:04:59.535Z,7.20
2022-11-26T02:08:03.986Z,8.32
2022-11-26T02:11:17.842Z,7.20
2022-11-26T02:14:23.739Z,7.25
2022-11-26T02:17:36.235Z,7.03
2022-11-26T02:20:50.735Z,7.75
2022-11-26T02:24:11.833Z,7.25
2022-11-26T02:27:56.078Z,6.70
2022-11-26T02:31:06.402Z,7.35
2022-11-26T02:34:16.166Z,6.60
2022-11-26T02:37:24.302Z,6.47
2022-11-26T02:40:27.615Z,6.75
2022-11-26T02:43:32.330Z,6.68
2022-11-26T02:46:38.730Z,6.85
2022-11-26T02:49:43.991Z,6.68
2022-11-26T02:52:49.648Z,7.07
2022-11-26T02:56:00.767Z,6.28
2022-11-26T02:59:05.659Z,6.45
2022-11-26T03:02:15.974Z,6.65
2022-11-26T03:05:20.689Z,6.32
2022-11-26T03:08:25.171Z,6.82
2022-11-26T03:11:28.761Z,6.65
2022-11-26T03:14:31.707Z,6.53
2022-11-26T03:17:36.046Z,6.75
2022-11-26T03:20:39.044Z,6.82
2022-11-26T03:23:42.169Z,6.88
2022-11-26T03:26:45.140Z,6.10
2022-11-26T03:29:48.205Z,6.57
2022-11-26T03:32:52.643Z,6.32
2022-11-26T03:35:55.562Z,6.35
2022-11-26T03:38:58.523Z,6.20
2022-11-26T03:42:01.565Z,6.50
2022-11-26T03:45:04.994Z,6.50
2022-11-26T03:48:10.298Z,6.25
2022-11-26T03:51:13.262Z,6.60
2022-11-26T03:54:16.473Z,5.93
2022-11-26T03:57:20.245Z,5.82
2022-11-26T04:00:23.631Z,6.35
2022-11-26T04:03:28.084Z,6.15
2022-11-26T04:06:31.178Z,6.18
2022-11-26T04:09:34.286Z,6.28
2022-11-26T04:12:37.590Z,7.30
2022-11-26T04:15:40.550Z,6.25
2022-11-26T04:18:45.005Z,6.03
2022-11-26T04:21:48.064Z,5.68
2022-11-26T04:24:50.991Z,6.05
2022-11-26T04:27:54.055Z,6.93
2022-11-26T04:30:57.074Z,6.10
2022-11-26T04:34:01.448Z,5.88
2022-11-26T04:37:04.410Z,5.88
2022-11-26T04:40:08.649Z,5.78
2022-11-26T04:43:11.638Z,5.65
2022-11-26T04:46:14.641Z,5.95
2022-11-26T04:49:18.957Z,5.68
2022-11-26T04:52:21.943Z,5.88
2022-11-26T04:55:25.409Z,5.38
2022-11-26T04:58:28.652Z,5.65
2022-11-26T05:01:31.695Z,5.22
2022-11-26T05:04:36.329Z,5.60
2022-11-26T05:07:40.174Z,5.50
2022-11-26T05:10:43.295Z,6.22
2022-11-26T05:13:46.271Z,5.47
2022-11-26T05:16:49.268Z,5.93
2022-11-26T05:19:53.710Z,5.38
2022-11-26T05:22:56.720Z,6.10
2022-11-26T05:25:59.651Z,5.88
2022-11-26T05:29:02.625Z,5.20
2022-11-26T05:32:06.380Z,5.00
2022-11-26T05:35:11.395Z,5.50
2022-11-26T05:38:14.398Z,4.88
2022-11-26T05:41:17.405Z,5.75
2022-11-26T05:44:20.375Z,5.63
2022-11-26T05:47:23.563Z,5.18
2022-11-26T05:50:27.894Z,5.53
2022-11-26T05:53:31.555Z,5.60
2022-11-26T05:56:34.595Z,5.70
2022-11-26T05:59:37.731Z,5.65
2022-11-26T06:02:40.760Z,4.80
2022-11-26T06:05:45.302Z,5.65
2022-11-26T06:08:48.278Z,5.32
2022-11-26T06:11:51.647Z,5.55
2022-11-26T06:14:54.606Z,5.53
2022-11-26T06:17:57.638Z,5.13
2022-11-26T06:21:02.736Z,5.20
2022-11-26T06:24:06.539Z,5.38
2022-11-26T06:27:09.587Z,5.35
2022-11-26T06:30:13.680Z,5.22
2022-11-26T06:33:16.746Z,5.55
2022-11-26T06:36:21.202Z,5.55
2022-11-26T06:39:24.173Z,5.72
2022-11-26T06:42:27.282Z,5.47
2022-11-26T06:45:30.575Z,5.00
2022-11-26T06:48:34.307Z,5.00
2022-11-26T06:51:38.730Z,4.93
2022-11-26T06:54:41.791Z,5.60
2022-11-26T06:57:44.761Z,5.50
2022-11-26T07:00:47.687Z,4.70
2022-11-26T07:03:50.989Z,5.75
2022-11-26T07:06:55.378Z,4.95
2022-11-26T07:09:58.307Z,5.28
2022-11-26T07:13:01.449Z,5.03
2022-11-26T07:16:05.842Z,4.80
2022-11-26T07:19:08.794Z,4.43
2022-11-26T07:22:13.227Z,5.00
2022-11-26T07:25:17.161Z,4.80
2022-11-26T07:28:20.139Z,5.25
2022-11-26T07:31:24.270Z,5.57
2022-11-26T07:34:27.339Z,4.97
2022-11-26T07:37:33.257Z,5.07
2022-11-26T07:40:36.436Z,4.95
2022-11-26T07:43:40.924Z,4.90
2022-11-26T07:46:43.850Z,5.25
2022-11-26T07:49:46.792Z,5.13
2022-11-26T07:52:52.936Z,5.20
2022-11-26T07:55:56.120Z,4.60
2022-11-26T07:58:59.091Z,5.05
2022-11-26T08:02:02.182Z,4.60
2022-11-26T08:05:05.778Z,4.88
2022-11-26T08:08:10.909Z,5.00
2022-11-26T08:11:16.423Z,4.70
2022-11-26T08:14:19.373Z,5.30
2022-11-26T08:17:22.548Z,5.07
2022-11-26T08:20:29.029Z,5.07
2022-11-26T08:23:35.814Z,5.00
2022-11-26T08:26:43.910Z,5.07
2022-11-26T08:29:47.658Z,5.10
2022-11-26T08:32:50.685Z,5.57
2022-11-26T08:36:06.585Z,5.53
2022-11-26T08:39:13.874Z,5.40
2022-11-26T08:42:17.089Z,5.10
2022-11-26T08:45:20.178Z,5.43
2022-11-26T08:48:27.884Z,6.13
2022-11-26T08:51:34.619Z,4.43
2022-11-26T08:54:44.607Z,5.60
2022-11-26T08:57:48.769Z,5.10
2022-11-26T09:00:51.786Z,5.50
2022-11-26T09:03:56.478Z,5.45
2022-11-26T09:06:59.414Z,5.00
2022-11-26T09:10:03.766Z,4.97
2022-11-26T09:13:07.091Z,4.82
2022-11-26T09:16:10.224Z,5.50
2022-11-26T09:19:14.970Z,4.82
2022-11-26T09:22:17.923Z,4.70
2022-11-26T09:25:22.330Z,5.43
2022-11-26T09:28:25.501Z,5.07
2022-11-26T09:31:29.128Z,4.47
2022-11-26T09:34:32.453Z,4.65
2022-11-26T09:37:35.400Z,4.70
2022-11-26T09:40:48.244Z,4.78
2022-11-26T09:44:07.060Z,5.75
2022-11-26T09:47:18.032Z,5.82
2022-11-26T09:50:28.015Z,5.03
2022-11-26T09:53:36.545Z,5.00
2022-11-26T09:56:40.918Z,4.20
2022-11-26T09:59:46.570Z,4.82
2022-11-26T10:02:49.547Z,4.85
2022-11-26T10:05:59.227Z,4.72
2022-11-26T10:09:17.331Z,4.43
2022-11-26T10:12:30.975Z,4.75
2022-11-26T10:15:39.758Z,4.72
2022-11-26T10:18:51.172Z,4.30
2022-11-26T10:21:58.968Z,4.78
2022-11-26T10:25:04.172Z,4.03
2022-11-26T10:28:19.978Z,4.70
2022-11-26T10:31:25.727Z,4.75
2022-11-26T10:34:39.324Z,5.32
2022-11-26T10:37:42.932Z,4.65
2022-11-26T10:40:46.081Z,5.47
2022-11-26T10:43:50.537Z,4.78
2022-11-26T10:46:53.653Z,5.57
2022-11-26T10:50:39.474Z,5.63
2022-11-26T10:53:51.803Z,5.53
2022-11-26T10:56:55.406Z,5.25
2022-11-26T11:00:00.294Z,5.32
2022-11-26T11:03:05.857Z,5.28
2022-11-26T11:06:24.926Z,5.18
2022-11-26T11:09:32.321Z,5.78
2022-11-26T11:12:35.714Z,6.10
2022-11-26T11:15:41.595Z,5.97
2022-11-26T11:18:52.945Z,6.45
2022-11-26T11:21:56.011Z,5.85
2022-11-26T11:25:01.152Z,5.90
2022-11-26T11:28:15.172Z,5.93
2022-11-26T11:31:22.285Z,6.10
2022-11-26T11:34:30.658Z,6.32
2022-11-26T11:37:33.763Z,6.22
2022-11-26T11:40:43.009Z,5.65
2022-11-26T11:43:46.184Z,6.13
2022-11-26T11:47:25.330Z,5.80
2022-11-26T11:50:33.823Z,5.63
2022-11-26T11:53:44.542Z,6.13
2022-11-26T11:56:52.593Z,6.75
2022-11-26T12:00:13.249Z,6.32
2022-11-26T12:03:49.784Z,6.43
2022-11-26T12:07:14.229Z,6.95
2022-11-26T12:10:29.726Z,6.95
2022-11-26T12:13:43.009Z,6.63
2022-11-26T12:16:51.302Z,6.60
2022-11-26T12:20:00.887Z,7.68
2022-11-26T12:23:22.619Z,6.93
2022-11-26T12:26:33.472Z,7.40
2022-11-26T12:29:41.415Z,7.63
2022-11-26T12:32:50.645Z,6.95
2022-11-26T12:35:57.655Z,7.93
2022-11-26T12:39:04.370Z,7.68
2022-11-26T12:42:17.262Z,7.25
2022-11-26T12:45:28.748Z,7.65
2022-11-26T12:48:44.530Z,7.85
2022-11-26T12:51:57.262Z,9.07
2022-11-26T12:55:12.396Z,8.02
2022-11-26T12:58:20.438Z,8.82
2022-11-26T13:01:24.578Z,7.82
2022-11-26T13:04:37.654Z,9.10
2022-11-26T13:07:57.636Z,8.80
2022-11-26T13:11:16.240Z,9.27
2022-11-26T13:14:27.133Z,8.20
2022-11-26T13:17:38.805Z,8.55
2022-11-26T13:21:02.350Z,8.95
2022-11-26T13:24:47.943Z,8.80
2022-11-26T13:28:00.032Z,8.40
2022-11-26T13:31:22.215Z,8.07
2022-11-26T13:34:57.800Z,8.75
2022-11-26T13:38:17.441Z,9.05
2022-11-26T13:41:36.429Z,9.02
2022-11-26T13:44:59.655Z,8.77
2022-11-26T13:48:07.642Z,8.77
2022-11-26T13:51:20.585Z,8.73
2022-11-26T13:54:29.506Z,8.93
2022-11-26T13:57:41.246Z,8.45
2022-11-26T14:00:44.649Z,8.93
2022-11-26T14:03:49.494Z,8.65
2022-11-26T14:07:20.924Z,9.43
2022-11-26T14:10:43.361Z,9.82
2022-11-26T14:14:26.089Z,9.35
2022-11-26T14:17:34.967Z,8.88
2022-11-26T14:21:14.375Z,8.55
2022-11-26T14:24:56.498Z,9.60
2022-11-26T14:28:01.830Z,9.88
2022-11-26T14:31:13.337Z,9.30
2022-11-26T14:34:21.127Z,9.70
2022-11-26T14:37:27.238Z,9.77
2022-11-26T14:40:32.901Z,10.52
2022-11-26T14:43:35.922Z,9.50
2022-11-26T14:46:39.897Z,9.85
2022-11-26T14:49:46.077Z,10.05
2022-11-26T14:52:56.462Z,9.85
2022-11-26T14:56:00.090Z,10.60
2022-11-26T14:59:03.513Z,10.05
2022-11-26T15:02:22.207Z,10.00
2022-11-26T15:05:26.738Z,10.30
2022-11-26T15:08:31.125Z,10.10
2022-11-26T15:11:35.447Z,10.02
2022-11-26T15:14:41.679Z,9.68
2022-11-26T15:17:48.174Z,10.73
2022-11-26T15:20:53.722Z,10.85
2022-11-26T15:24:00.501Z,10.93
2022-11-26T15:27:03.494Z,10.30
2022-11-26T15:30:19.473Z,10.73
2022-11-26T15:33:22.764Z,10.38
2022-11-26T15:36:25.738Z,10.82
2022-11-26T15:39:31.905Z,10.85
2022-11-26T15:42:35.417Z,10.15
2022-11-26T15:45:41.676Z,10.38
2022-11-26T15:48:52.934Z,9.95
2022-11-26T15:51:59.880Z,10.68
2022-11-26T15:55:15.463Z,10.07
2022-11-26T15:58:23.321Z,10.40
2022-11-26T16:01:30.152Z,10.65
2022-11-26T16:04:41.357Z,10.63
2022-11-26T16:07:57.831Z,10.55
2022-11-26T16:11:09.826Z,11.13
2022-11-26T16:14:30.750Z,10.55
2022-11-26T16:17:34.072Z,10.85
2022-11-26T16:20:37.110Z,11.10
2022-11-26T16:23:40.102Z,11.10
2022-11-26T16:27:00.843Z,10.88
2022-11-26T16:30:08.539Z,11.00
2022-11-26T16:33:11.883Z,11.15
2022-11-26T16:36:20.417Z,11.48
2022-11-26T16:39:27.409Z,10.52
2022-11-26T16:42:34.455Z,10.80
2022-11-26T16:45:37.426Z,10.85
2022-11-26T16:48:41.630Z,10.93
2022-11-26T16:51:44.618Z,10.43
2022-11-26T16:54:47.994Z,11.52
2022-11-26T16:57:56.846Z,12.10
2022-11-26T17:01:00.314Z,11.02
2022-11-26T17:04:03.309Z,11.07
2022-11-26T17:07:06.381Z,10.98
2022-11-26T17:10:14.685Z,10.75
2022-11-26T17:13:20.590Z,10.68
2022-11-26T17:16:26.175Z,11.02
2022-11-26T17:19:29.311Z,11.10
2022-11-26T17:22:32.234Z,10.70
2022-11-26T17:25:35.148Z,11.02
2022-11-26T17:28:39.564Z,11.32
2022-11-26T17:31:42.558Z,11.00
2022-11-26T17:34:46.081Z,8.10
2022-11-26T17:37:49.090Z,7.20
2022-11-26T17:40:52.089Z,6.90
2022-11-26T17:43:56.481Z,6.53
2022-11-26T17:47:16.308Z,7.60
2022-11-26T17:50:22.985Z,7.10
2022-11-26T17:53:26.051Z,7.00
2022-11-26T17:56:29.208Z,6.55
2022-11-26T17:59:33.786Z,6.28
2022-11-26T18:02:37.001Z,5.90
2022-11-26T18:05:42.263Z,6.07
2022-11-26T18:08:46.107Z,6.13
2022-11-26T18:11:51.521Z,5.78
2022-11-26T18:14:57.135Z,5.70
2022-11-26T18:18:00.703Z,6.82
2022-11-26T18:21:03.674Z,6.47
2022-11-26T18:24:08.212Z,6.05
2022-11-26T18:27:11.151Z,6.20
2022-11-26T18:30:16.509Z,5.95
2022-11-26T18:33:19.517Z,5.65
2022-11-26T18:36:22.526Z,6.00
2022-11-26T18:39:25.650Z,6.20
2022-11-26T18:42:37.424Z,5.82
2022-11-26T18:45:44.120Z,6.03
2022-11-26T18:48:48.913Z,5.53
2022-11-26T18:51:51.899Z,6.65
2022-11-26T18:54:54.955Z,7.07
2022-11-26T18:57:57.978Z,7.32
2022-11-26T19:01:02.486Z,7.57
2022-11-26T19:04:06.407Z,8.63
2022-11-26T19:07:10.282Z,9.48
2022-11-26T19:10:13.557Z,9.70
2022-11-26T19:13:17.342Z,9.65
2022-11-26T19:16:22.813Z,10.18
2022-11-26T19:19:29.652Z,9.05
2022-11-26T19:22:32.701Z,10.40
2022-11-26T19:25:35.743Z,9.63
2022-11-26T19:28:38.802Z,10.38
2022-11-26T19:31:43.213Z,35.55
2022-11-26T19:34:46.194Z,26.13
2022-11-26T19:37:49.242Z,23.65
2022-11-26T19:40:57.074Z,32.00
2022-11-26T19:44:01.442Z,32.03
2022-11-26T19:47:05.902Z,35.40
2022-11-26T19:50:10.485Z,29.80
2022-11-26T19:53:13.574Z,29.08
2022-11-26T19:56:19.243Z,34.25
2022-11-26T19:59:22.441Z,32.25
2022-11-26T20:02:26.882Z,33.95
2022-11-26T20:05:29.929Z,29.65
2022-11-26T20:08:33.303Z,26.75
2022-11-26T20:11:38.478Z,29.55
2022-11-26T20:14:41.555Z,28.65
2022-11-26T20:17:46.009Z,29.65
2022-11-26T20:20:58.900Z,29.33
2022-11-26T20:24:05.694Z,28.48
2022-11-26T20:27:08.705Z,29.92
2022-11-26T20:30:12.606Z,28.95
2022-11-26T20:33:20.074Z,29.52
2022-11-26T20:36:24.096Z,28.83
2022-11-26T20:39:28.712Z,29.20
2022-11-26T20:42:33.377Z,27.80
2022-11-26T20:45:36.560Z,27.35
2022-11-26T20:48:43.186Z,25.30
2022-11-26T20:51:46.105Z,24.42
2022-11-26T20:54:53.445Z,23.25
2022-11-26T20:57:56.873Z,23.20
2022-11-26T21:01:00.198Z,22.77
2022-11-26T21:04:04.688Z,23.27
2022-11-26T21:07:07.762Z,23.08
2022-11-26T21:10:11.775Z,24.00
2022-11-26T21:13:16.581Z,21.90
2022-11-26T21:16:19.773Z,22.95
2022-11-26T21:19:24.645Z,22.60
2022-11-26T21:22:27.686Z,21.13
2022-11-26T21:25:30.642Z,22.88
2022-11-26T21:28:33.613Z,21.92
2022-11-26T21:31:37.204Z,20.73
2022-11-26T21:34:41.743Z,20.90
2022-11-26T21:37:44.749Z,22.38
2022-11-26T21:40:47.893Z,21.55
2022-11-26T21:43:51.647Z,20.70
2022-11-26T21:46:54.690Z,20.55
2022-11-26T21:49:59.091Z,21.80
2022-11-26T21:53:02.181Z,22.05
2022-11-26T21:56:06.741Z,21.02
2022-11-26T21:59:10.844Z,21.50
2022-11-26T22:02:14.464Z,22.52
2022-11-26T22:05:18.905Z,21.85
2022-11-26T22:08:22.282Z,21.83
2022-11-26T22:11:27.569Z,21.05
2022-11-26T22:14:30.654Z,22.10
2022-11-26T22:17:33.690Z,21.58
2022-11-26T22:20:39.695Z,22.27
2022-11-26T22:23:42.677Z,21.17
2022-11-26T22:26:46.155Z,22.63
2022-11-26T22:29:49.162Z,21.15
2022-11-26T22:32:52.194Z,21.27
2022-11-26T22:35:56.616Z,22.98
2022-11-26T22:39:00.474Z,22.42
2022-11-26T22:42:04.013Z,23.02
2022-11-26T22:45:08.125Z,22.83
2022-11-26T22:48:12.398Z,23.33
2022-11-26T22:51:17.038Z,22.88
2022-11-26T22:54:21.377Z,21.17
2022-11-26T22:57:25.666Z,21.10
2022-11-26T23:00:50.294Z,19.75
2022-11-26T23:03:54.577Z,18.65
2022-11-26T23:06:58.958Z,16.85
2022-11-26T23:10:01.995Z,17.48
2022-11-26T23:13:06.698Z,16.55
2022-11-26T23:16:10.588Z,15.35
2022-11-26T23:19:15.774Z,15.93
2022-11-26T23:22:20.181Z,15.75
2022-11-26T23:25:23.117Z,15.48
2022-11-26T23:28:26.127Z,16.35
2022-11-26T23:31:31.352Z,15.32
2022-11-26T23:34:34.422Z,15.57
2022-11-26T23:37:39.318Z,15.75
2022-11-26T23:40:42.310Z,16.10
2022-11-26T23:43:45.850Z,15.27
2022-11-26T23:46:48.842Z,15.18
2022-11-26T23:49:51.922Z,15.18
2022-11-26T23:52:56.223Z,15.10
2022-11-26T23:56:03.661Z,15.10
2022-11-26T23:59:06.999Z,14.80
